Time;durP1;ratioP1;P1;durP2;ratioP2;P2;SDS_P1;SDS_P2;PMS_P1;PMS_P2;Temp;Humidity;BMP_temperature;BMP_pressure;BME280_temperature;BME280_humidity;BME280_pressure;Samples;Min_cycle;Max_cycle;Signal;HPM_P1;HPM_P2
2024/01/26 00:01:39;;;;;;;1.40;0.80;;;8.50;99.90;;;;;;5050820;28;20186;-60
2024/01/26 00:04:04;;;;;;;0.88;0.65;;;8.50;99.90;;;;;;5050722;28;20205;-60
2024/01/26 00:06:30;;;;;;;0.50;0.50;;;8.50;99.90;;;;;;5052224;28;20174;-60
2024/01/26 00:08:56;;;;;;;0.70;0.70;;;8.60;99.90;;;;;;5054775;28;20166;-60
2024/01/26 00:11:21;;;;;;;0.60;0.53;;;8.60;99.90;;;;;;5054619;28;20193;-60
2024/01/26 00:13:47;;;;;;;0.60;0.60;;;8.50;99.90;;;;;;5054596;28;20170;-60
2024/01/26 00:16:12;;;;;;;0.90;0.80;;;8.50;99.90;;;;;;5054658;28;20178;-60
2024/01/26 00:18:41;;;;;;;1.27;0.90;;;8.50;99.90;;;;;;5054530;28;20579;-60
2024/01/26 00:21:07;;;;;;;0.70;0.70;;;8.60;99.90;;;;;;5054530;28;20191;-60
2024/01/26 00:23:34;;;;;;;2.22;1.88;;;8.60;99.90;;;;;;5054464;28;20218;-60
2024/01/26 00:25:59;;;;;;;1.90;1.27;;;8.60;99.90;;;;;;5054547;28;20232;-59
2024/01/26 00:28:26;;;;;;;2.45;1.50;;;8.50;99.90;;;;;;5054579;28;20706;-60
2024/01/26 00:30:51;;;;;;;1.70;1.60;;;8.60;99.90;;;;;;5054009;28;20170;-60
2024/01/26 00:33:17;;;;;;;1.00;1.00;;;8.70;99.90;;;;;;5054246;28;20674;-60
2024/01/26 00:35:43;;;;;;;1.03;0.90;;;8.70;99.90;;;;;;5054187;28;20178;-60
2024/01/26 00:38:09;;;;;;;1.13;1.13;;;8.60;99.90;;;;;;5054295;28;20413;-60
2024/01/26 00:40:34;;;;;;;1.10;1.00;;;8.50;99.90;;;;;;5054064;28;20213;-60
2024/01/26 00:43:00;;;;;;;1.07;0.90;;;8.60;99.90;;;;;;5054049;28;20222;-60
2024/01/26 00:45:26;;;;;;;1.40;1.30;;;8.60;99.90;;;;;;5054156;28;20170;-60
2024/01/26 00:47:51;;;;;;;1.40;1.30;;;8.60;99.90;;;;;;5053996;28;20635;-60
2024/01/26 00:50:17;;;;;;;1.33;1.10;;;8.60;99.90;;;;;;5053920;28;20197;-60
2024/01/26 00:52:43;;;;;;;2.63;1.60;;;8.70;99.90;;;;;;5053681;28;20213;-60
2024/01/26 00:55:08;;;;;;;2.00;1.70;;;8.70;99.90;;;;;;5054027;28;20660;-60
2024/01/26 00:57:34;;;;;;;1.47;1.37;;;8.70;99.90;;;;;;5053904;28;20193;-60
2024/01/26 00:59:59;;;;;;;1.57;1.47;;;8.80;99.90;;;;;;5054206;28;20257;-60
2024/01/26 01:02:25;;;;;;;2.40;1.73;;;8.80;99.90;;;;;;5053321;28;20204;-60
2024/01/26 01:04:51;;;;;;;2.13;1.60;;;8.80;99.90;;;;;;5053650;28;20197;-60
2024/01/26 01:07:16;;;;;;;1.30;1.20;;;8.80;99.90;;;;;;5053948;28;20216;-60
2024/01/26 01:09:42;;;;;;;2.77;1.70;;;8.70;99.90;;;;;;5053671;28;20170;-60
2024/01/26 01:12:08;;;;;;;2.17;1.73;;;8.70;99.90;;;;;;5053238;28;20589;-60
2024/01/26 01:14:36;;;;;;;1.60;1.33;;;8.70;99.90;;;;;;5053590;28;20177;-60
2024/01/26 01:17:05;;;;;;;2.55;1.98;;;8.70;99.90;;;;;;5053451;28;20658;-60
2024/01/26 01:19:31;;;;;;;0.90;0.90;;;8.70;99.90;;;;;;5053557;28;20181;-60
2024/01/26 01:21:57;;;;;;;1.57;1.30;;;8.70;99.90;;;;;;5052940;28;20623;-60
2024/01/26 01:24:23;;;;;;;1.17;1.10;;;8.70;99.90;;;;;;5053320;28;20216;-60
2024/01/26 01:26:49;;;;;;;1.50;1.10;;;8.80;99.90;;;;;;5035280;28;20271;-60
2024/01/26 01:29:14;;;;;;;1.37;1.10;;;8.80;99.90;;;;;;5053789;28;20197;-60
2024/01/26 01:31:40;;;;;;;1.40;1.30;;;8.70;99.90;;;;;;5079340;22;20321;-62
2024/01/26 01:34:06;;;;;;;1.90;1.70;;;8.60;99.90;;;;;;5072978;28;20261;-62
2024/01/26 01:36:31;;;;;;;1.57;1.47;;;8.50;99.90;;;;;;5073188;28;20651;-62
2024/01/26 01:38:57;;;;;;;1.00;1.00;;;8.40;99.90;;;;;;5074131;28;20172;-62
2024/01/26 01:41:23;;;;;;;6.53;1.53;;;8.50;99.90;;;;;;5073102;28;20174;-62
2024/01/26 01:43:55;;;;;;;1.00;1.00;;;8.50;99.90;;;;;;5072883;28;20255;-62
2024/01/26 01:46:21;;;;;;;1.50;1.40;;;8.40;99.90;;;;;;5073316;28;20538;-62
2024/01/26 01:48:47;;;;;;;1.35;1.25;;;8.40;99.90;;;;;;5072908;28;20227;-63
2024/01/26 01:51:16;;;;;;;1.00;1.00;;;8.40;99.90;;;;;;5072978;28;20176;-62
2024/01/26 01:53:43;;;;;;;1.20;1.10;;;8.40;99.90;;;;;;5072793;28;20166;-62
2024/01/26 01:56:14;;;;;;;1.10;1.00;;;8.40;99.90;;;;;;5072852;28;20724;-63
2024/01/26 01:58:41;;;;;;;2.75;1.05;;;8.30;99.90;;;;;;5072741;28;20170;-62
2024/01/26 02:01:07;;;;;;;1.48;1.20;;;8.40;99.90;;;;;;5072657;28;20184;-62
2024/01/26 02:03:33;;;;;;;1.58;1.20;;;8.30;99.90;;;;;;5072438;28;20204;-62
2024/01/26 02:05:58;;;;;;;1.97;1.87;;;8.20;99.90;;;;;;5072620;28;20253;-62
2024/01/26 02:08:24;;;;;;;3.40;1.50;;;8.20;99.90;;;;;;5072240;28;20174;-63
2024/01/26 02:10:49;;;;;;;1.40;1.30;;;8.10;99.90;;;;;;5072235;28;20169;-63
2024/01/26 02:13:15;;;;;;;1.17;1.07;;;8.20;99.90;;;;;;5072742;28;20193;-63
2024/01/26 02:15:41;;;;;;;1.10;1.10;;;8.30;99.90;;;;;;5071808;28;20173;-63
2024/01/26 02:18:07;;;;;;;1.53;1.40;;;8.40;99.90;;;;;;5072351;28;20188;-62
2024/01/26 02:20:33;;;;;;;1.47;1.10;;;8.30;99.90;;;;;;5072071;28;20408;-63
2024/01/26 02:22:59;;;;;;;1.52;1.35;;;8.40;99.90;;;;;;5071947;28;20423;-62
2024/01/26 02:25:24;;;;;;;1.47;1.37;;;8.50;99.90;;;;;;5072209;28;20582;-62
2024/01/26 02:27:53;;;;;;;1.60;1.50;;;8.40;99.90;;;;;;5072168;28;20176;-62
2024/01/26 02:30:19;;;;;;;1.95;1.50;;;8.40;99.90;;;;;;5071791;28;20203;-63
2024/01/26 02:32:44;;;;;;;2.93;1.47;;;8.50;99.90;;;;;;5071701;28;20638;-63
2024/01/26 02:35:11;;;;;;;1.37;1.27;;;8.60;99.90;;;;;;5072011;28;20177;-63
2024/01/26 02:37:36;;;;;;;2.90;1.50;;;8.60;99.90;;;;;;5072045;28;20195;-62
2024/01/26 02:40:02;;;;;;;1.80;1.40;;;8.70;99.90;;;;;;5072413;28;20327;-62
2024/01/26 02:42:28;;;;;;;2.22;1.60;;;8.70;99.90;;;;;;5071525;28;20438;-63
2024/01/26 02:44:54;;;;;;;1.83;1.73;;;8.60;99.90;;;;;;5071655;28;20678;-62
2024/01/26 02:47:20;;;;;;;1.93;0.90;;;8.50;99.90;;;;;;5071845;28;20169;-63
2024/01/26 02:49:45;;;;;;;1.80;1.70;;;8.50;99.90;;;;;;5071794;28;20209;-63
2024/01/26 02:52:11;;;;;;;1.23;1.13;;;8.60;99.90;;;;;;5071520;28;20192;-63
2024/01/26 02:54:37;;;;;;;1.40;1.17;;;8.60;99.90;;;;;;5071571;28;20174;-63
2024/01/26 02:57:03;;;;;;;1.37;1.27;;;8.70;99.90;;;;;;5071937;28;20509;-62
2024/01/26 02:59:28;;;;;;;1.50;1.30;;;8.70;99.90;;;;;;5071790;28;20548;-62
2024/01/26 03:01:54;;;;;;;2.63;1.93;;;8.70;99.90;;;;;;5072320;28;20909;-63
2024/01/26 03:04:20;;;;;;;3.80;1.20;;;8.70;99.90;;;;;;5071621;28;20205;-63
2024/01/26 03:06:46;;;;;;;1.30;1.20;;;8.60;99.90;;;;;;5071597;28;20651;-62
2024/01/26 03:09:12;;;;;;;3.15;1.35;;;8.70;99.90;;;;;;5071533;28;20158;-63
2024/01/26 03:11:38;;;;;;;1.27;1.00;;;8.70;99.90;;;;;;5071319;28;20198;-63
2024/01/26 03:14:07;;;;;;;1.35;1.25;;;8.70;99.90;;;;;;5071443;28;20231;-63
2024/01/26 03:16:34;;;;;;;2.78;1.88;;;8.70;99.90;;;;;;5071578;28;20227;-63
2024/01/26 03:19:00;;;;;;;1.00;1.00;;;8.80;99.90;;;;;;5071620;28;20178;-63
2024/01/26 03:21:26;;;;;;;1.43;1.30;;;8.80;99.90;;;;;;5071399;28;20584;-63
2024/01/26 03:23:51;;;;;;;3.43;1.40;;;8.80;99.90;;;;;;5071698;28;20205;-63
2024/01/26 03:26:18;;;;;;;1.50;1.40;;;8.80;99.90;;;;;;5071481;28;20166;-62
2024/01/26 03:28:43;;;;;;;1.80;1.70;;;8.70;99.90;;;;;;5071463;28;20236;-63
2024/01/26 03:31:09;;;;;;;1.40;1.30;;;8.60;99.90;;;;;;5071437;28;20278;-62
2024/01/26 03:33:35;;;;;;;1.13;1.03;;;8.60;99.90;;;;;;5071271;28;20173;-63
2024/01/26 03:36:01;;;;;;;2.03;1.30;;;8.60;99.90;;;;;;5071326;28;20181;-62
2024/01/26 03:38:26;;;;;;;1.23;1.13;;;8.60;99.90;;;;;;5071298;28;20173;-62
2024/01/26 03:40:52;;;;;;;1.30;1.20;;;8.50;99.90;;;;;;5071085;28;20307;-62
2024/01/26 03:43:18;;;;;;;1.67;1.57;;;8.60;99.90;;;;;;5075111;28;20242;-63
2024/01/26 03:45:43;;;;;;;1.43;1.33;;;8.70;99.90;;;;;;5081798;28;20421;-62
2024/01/26 03:48:09;;;;;;;1.30;1.20;;;8.70;99.90;;;;;;5094305;28;20173;-63
2024/01/26 03:50:35;;;;;;;2.43;1.40;;;8.70;99.90;;;;;;5095368;28;20241;-63
2024/01/26 03:53:00;;;;;;;2.00;1.60;;;8.70;99.90;;;;;;5095303;28;20189;-63
2024/01/26 03:55:26;;;;;;;1.63;1.27;;;8.70;99.90;;;;;;5095512;28;20227;-62
2024/01/26 03:57:51;;;;;;;2.53;1.60;;;8.70;99.90;;;;;;5095318;28;20169;-62
2024/01/26 04:00:17;;;;;;;3.13;1.30;;;8.70;99.90;;;;;;5095175;28;20164;-62
2024/01/26 04:02:43;;;;;;;3.53;1.85;;;8.70;99.90;;;;;;5095154;28;20219;-63
2024/01/26 04:05:09;;;;;;;1.40;1.30;;;8.70;99.90;;;;;;5095257;28;20227;-63
2024/01/26 04:07:35;;;;;;;1.50;1.20;;;8.70;99.90;;;;;;5095189;28;20165;-63
2024/01/26 04:10:01;;;;;;;1.35;1.25;;;8.70;99.90;;;;;;5095173;28;20532;-62
2024/01/26 04:12:26;;;;;;;1.60;1.50;;;8.60;99.90;;;;;;5091733;28;20209;-62
2024/01/26 04:14:52;;;;;;;1.00;1.00;;;8.60;99.90;;;;;;5085160;28;20409;-63
2024/01/26 04:17:19;;;;;;;4.50;1.33;;;8.40;99.90;;;;;;5084946;28;20185;-63
2024/01/26 04:19:44;;;;;;;1.40;1.00;;;8.40;99.90;;;;;;5083282;28;20169;-63
2024/01/26 04:22:10;;;;;;;1.30;1.20;;;8.40;99.90;;;;;;5089223;28;20319;-63
2024/01/26 04:24:36;;;;;;;7.03;1.30;;;8.40;99.90;;;;;;5095986;28;20189;-63
2024/01/26 04:27:01;;;;;;;1.23;1.23;;;8.40;99.90;;;;;;5094808;28;20815;-63
2024/01/26 04:29:27;;;;;;;1.43;1.30;;;8.50;99.90;;;;;;5094794;28;20165;-63
2024/01/26 04:31:53;;;;;;;1.47;1.37;;;8.50;99.90;;;;;;5094238;28;20205;-63
2024/01/26 04:34:19;;;;;;;1.25;1.15;;;8.60;99.90;;;;;;5094765;28;20175;-63
2024/01/26 04:36:48;;;;;;;2.33;1.58;;;8.70;99.90;;;;;;5094659;28;20172;-62
2024/01/26 04:39:15;;;;;;;1.60;1.50;;;8.70;99.90;;;;;;5094597;28;20165;-62
2024/01/26 04:41:41;;;;;;;1.52;1.42;;;8.70;99.90;;;;;;5094275;28;20185;-63
2024/01/26 04:44:07;;;;;;;1.10;0.90;;;8.60;99.90;;;;;;5094233;28;20215;-62
2024/01/26 04:46:34;;;;;;;2.10;1.48;;;8.70;99.90;;;;;;5077599;28;20416;-62
2024/01/26 04:48:59;;;;;;;2.00;1.80;;;8.60;99.90;;;;;;5074422;28;20566;-63
2024/01/26 04:51:25;;;;;;;1.33;1.30;;;8.60;99.90;;;;;;5073942;28;20196;-63
2024/01/26 04:53:52;;;;;;;2.17;1.50;;;8.60;99.90;;;;;;5073593;28;20256;-63
2024/01/26 04:56:19;;;;;;;1.40;1.33;;;8.60;99.90;;;;;;5073984;28;20323;-63
2024/01/26 04:58:45;;;;;;;1.10;1.02;;;8.60;99.90;;;;;;5073991;28;20287;-62
2024/01/26 05:01:10;;;;;;;3.33;1.37;;;8.60;99.90;;;;;;5073741;28;20227;-63
2024/01/26 05:03:36;;;;;;;1.50;1.40;;;8.60;99.90;;;;;;5073829;28;20197;-63
2024/01/26 05:06:03;;;;;;;1.37;1.27;;;8.60;99.90;;;;;;5073856;28;20228;-63
2024/01/26 05:08:28;;;;;;;1.55;1.45;;;8.50;99.90;;;;;;5073864;28;20201;-62
2024/01/26 05:10:54;;;;;;;1.10;1.07;;;8.50;99.90;;;;;;5073501;28;20197;-63
2024/01/26 05:13:19;;;;;;;3.70;1.73;;;8.60;99.90;;;;;;5073726;28;20280;-63
2024/01/26 05:15:45;;;;;;;1.57;1.47;;;8.60;99.90;;;;;;5073779;28;20647;-63
2024/01/26 05:18:11;;;;;;;2.43;1.83;;;8.60;99.90;;;;;;5073664;28;20170;-62
2024/01/26 05:20:36;;;;;;;0.97;0.90;;;8.60;99.90;;;;;;5073494;28;20204;-63
2024/01/26 05:23:02;;;;;;;1.50;1.43;;;8.60;99.90;;;;;;5073353;28;20197;-63
2024/01/26 05:25:28;;;;;;;3.08;1.45;;;8.50;99.90;;;;;;5073435;28;20176;-62
2024/01/26 05:27:54;;;;;;;2.60;2.30;;;8.50;99.90;;;;;;5073667;28;20646;-62
2024/01/26 05:30:19;;;;;;;3.70;3.40;;;8.50;99.90;;;;;;5073343;28;20252;-62
2024/01/26 05:32:45;;;;;;;3.87;2.50;;;8.50;99.90;;;;;;5072877;28;20211;-63
2024/01/26 05:35:10;;;;;;;2.87;2.67;;;8.50;99.90;;;;;;5073379;28;20548;-62
2024/01/26 05:37:39;;;;;;;4.03;2.77;;;8.50;99.90;;;;;;5073180;28;20223;-62
2024/01/26 05:40:06;;;;;;;1.98;1.70;;;8.40;99.90;;;;;;5073020;28;20178;-62
2024/01/26 05:42:32;;;;;;;2.20;2.00;;;8.40;99.90;;;;;;5072843;28;20683;-63
2024/01/26 05:44:57;;;;;;;2.63;1.87;;;8.40;99.90;;;;;;5072994;28;20208;-63
2024/01/26 05:47:23;;;;;;;1.13;1.10;;;8.30;99.90;;;;;;5074457;28;20170;-62
2024/01/26 05:49:50;;;;;;;2.60;1.80;;;8.40;99.90;;;;;;5073060;28;20174;-63
2024/01/26 05:52:16;;;;;;;2.45;1.05;;;8.40;99.90;;;;;;5072657;28;20189;-63
2024/01/26 05:54:42;;;;;;;2.50;2.30;;;8.40;99.90;;;;;;5072895;28;20196;-63
2024/01/26 05:57:07;;;;;;;2.20;2.00;;;8.40;99.90;;;;;;5072865;28;20924;-62
2024/01/26 05:59:33;;;;;;;3.10;1.70;;;8.50;99.90;;;;;;5072797;28;20173;-62
2024/01/26 06:01:58;;;;;;;2.60;1.73;;;8.40;99.90;;;;;;5072570;28;20248;-63
2024/01/26 06:04:24;;;;;;;1.60;1.50;;;8.30;99.90;;;;;;5071844;28;20605;-62
2024/01/26 06:06:50;;;;;;;1.23;1.13;;;8.30;99.90;;;;;;5072690;28;20166;-63
2024/01/26 06:09:18;;;;;;;1.35;0.90;;;8.30;99.90;;;;;;5072484;28;20766;-63
2024/01/26 06:11:44;;;;;;;1.38;1.30;;;8.30;99.90;;;;;;5072482;28;20248;-63
2024/01/26 06:14:10;;;;;;;1.70;1.57;;;8.30;99.90;;;;;;5072516;28;20182;-62
2024/01/26 06:16:35;;;;;;;1.70;1.60;;;8.30;99.90;;;;;;5072650;28;20662;-63
2024/01/26 06:19:01;;;;;;;1.50;1.47;;;8.30;99.90;;;;;;5072488;28;20515;-63
2024/01/26 06:21:27;;;;;;;2.50;1.47;;;8.20;99.90;;;;;;5072074;28;20679;-63
2024/01/26 06:23:52;;;;;;;2.60;2.40;;;8.20;99.90;;;;;;5072056;28;20205;-63
2024/01/26 06:26:20;;;;;;;2.50;2.37;;;8.20;99.90;;;;;;5072316;28;20193;-63
2024/01/26 06:28:45;;;;;;;2.58;1.80;;;8.20;99.90;;;;;;5072125;28;20181;-63
2024/01/26 06:31:11;;;;;;;4.63;3.67;;;8.20;99.90;;;;;;5071929;28;20169;-62
2024/01/26 06:33:37;;;;;;;11.90;7.37;;;8.20;99.90;;;;;;5071980;28;20643;-63
2024/01/26 06:36:02;;;;;;;6.00;3.93;;;8.20;99.90;;;;;;5071954;28;20170;-63
2024/01/26 06:38:28;;;;;;;7.90;3.10;;;8.20;99.90;;;;;;5072004;28;20639;-63
2024/01/26 06:40:54;;;;;;;4.00;3.17;;;8.20;99.90;;;;;;5071808;28;20408;-63
2024/01/26 06:43:20;;;;;;;4.37;3.60;;;8.20;99.90;;;;;;5071781;28;20186;-63
2024/01/26 06:45:46;;;;;;;9.18;8.13;;;8.20;99.90;;;;;;5072256;28;20624;-62
2024/01/26 06:48:11;;;;;;;9.70;8.40;;;8.10;99.90;;;;;;5074810;28;20198;-62
2024/01/26 06:50:38;;;;;;;12.43;6.97;;;8.00;99.90;;;;;;5091945;28;20222;-63
2024/01/26 06:53:04;;;;;;;14.68;7.47;;;8.10;99.90;;;;;;5092060;28;20587;-63
2024/01/26 06:55:29;;;;;;;10.90;5.63;;;8.10;99.90;;;;;;5091666;28;20175;-63
2024/01/26 06:57:56;;;;;;;13.47;6.20;;;8.10;99.90;;;;;;5091800;28;20472;-63
2024/01/26 07:00:22;;;;;;;8.60;6.65;;;8.20;99.90;;;;;;5088860;28;20160;-63
2024/01/26 07:02:47;;;;;;;13.82;6.45;;;8.20;99.90;;;;;;5071001;28;20204;-63
2024/01/26 07:05:13;;;;;;;15.40;6.50;;;8.10;99.90;;;;;;5071379;28;20205;-64
2024/01/26 07:07:39;;;;;;;7.80;4.90;;;8.10;99.90;;;;;;5071517;28;20173;-63
2024/01/26 07:10:05;;;;;;;13.87;8.03;;;8.10;99.90;;;;;;5073313;28;20200;-63
2024/01/26 07:12:31;;;;;;;9.32;5.47;;;8.00;99.90;;;;;;5071431;28;20589;-63
2024/01/26 07:14:56;;;;;;;13.50;6.40;;;8.00;99.90;;;;;;5071529;28;20180;-64
2024/01/26 07:17:22;;;;;;;10.43;5.90;;;8.00;99.90;;;;;;5071241;28;20184;-62
2024/01/26 07:19:47;;;;;;;10.37;6.00;;;8.00;99.90;;;;;;5091617;28;20180;-63
2024/01/26 07:22:13;;;;;;;17.30;8.13;;;8.10;99.90;;;;;;5091363;28;20681;-63
2024/01/26 07:24:39;;;;;;;16.50;5.87;;;8.10;99.90;;;;;;5073482;28;20196;-63
2024/01/26 07:27:05;;;;;;;10.83;5.73;;;8.10;99.90;;;;;;5091581;28;20505;-63
2024/01/26 07:29:32;;;;;;;5.00;3.90;;;8.20;99.90;;;;;;5091695;28;20169;-64
2024/01/26 07:31:57;;;;;;;5.15;3.22;;;8.10;99.90;;;;;;5110435;22;20218;-60
2024/01/26 07:34:23;;;;;;;2.67;2.47;;;8.20;99.90;;;;;;5069989;28;20220;-60
2024/01/26 07:36:49;;;;;;;9.23;3.03;;;8.20;99.90;;;;;;5076273;28;20186;-61
2024/01/26 07:39:15;;;;;;;4.87;3.80;;;8.20;99.90;;;;;;5071243;28;20252;-60
2024/01/26 07:41:41;;;;;;;2.55;2.00;;;8.30;99.90;;;;;;5069684;28;20177;-64
2024/01/26 07:44:06;;;;;;;2.80;2.30;;;8.30;99.90;;;;;;5070791;28;20552;-62
2024/01/26 07:46:32;;;;;;;3.03;1.90;;;8.40;99.90;;;;;;5071124;28;20169;-62
2024/01/26 07:49:00;;;;;;;1.80;1.70;;;8.40;99.90;;;;;;5071056;28;20171;-60
2024/01/26 07:51:26;;;;;;;1.88;1.77;;;8.40;99.90;;;;;;5070581;28;20184;-60
2024/01/26 07:53:52;;;;;;;3.40;3.10;;;8.40;99.90;;;;;;5070824;28;20572;-60
2024/01/26 07:56:18;;;;;;;1.97;1.63;;;8.40;99.90;;;;;;5070951;28;20173;-61
2024/01/26 07:58:44;;;;;;;2.27;2.07;;;8.50;99.90;;;;;;5069657;28;20181;-59
2024/01/26 08:01:12;;;;;;;2.17;2.00;;;8.50;99.90;;;;;;5070846;28;20416;-61
2024/01/26 08:03:38;;;;;;;2.38;2.17;;;8.60;99.90;;;;;;5070661;28;20466;-61
2024/01/26 08:06:04;;;;;;;3.60;2.40;;;8.60;99.90;;;;;;5071013;28;20557;-61
2024/01/26 08:08:30;;;;;;;3.63;2.20;;;8.60;99.90;;;;;;5070656;28;20554;-61
2024/01/26 08:10:57;;;;;;;1.95;1.73;;;8.70;99.90;;;;;;5070725;28;20223;-61
2024/01/26 08:13:22;;;;;;;3.40;2.53;;;8.80;99.90;;;;;;5070764;28;20196;-59
2024/01/26 08:15:48;;;;;;;1.43;1.33;;;8.90;99.90;;;;;;5070818;28;20624;-59
2024/01/26 08:18:14;;;;;;;2.20;2.00;;;8.80;99.90;;;;;;5070746;28;20177;-59
2024/01/26 08:20:40;;;;;;;2.70;1.80;;;8.90;99.90;;;;;;5070576;28;20166;-59
2024/01/26 08:23:06;;;;;;;1.77;1.67;;;9.00;99.90;;;;;;5070488;28;20741;-60
2024/01/26 08:25:32;;;;;;;1.50;1.40;;;9.00;99.90;;;;;;5070840;28;20254;-59
2024/01/26 08:27:57;;;;;;;5.35;1.80;;;9.00;99.90;;;;;;5072398;28;20348;-61
2024/01/26 08:30:23;;;;;;;2.10;1.93;;;9.20;99.90;;;;;;5074252;28;20192;-60
2024/01/26 08:32:51;;;;;;;2.55;2.22;;;9.30;99.90;;;;;;5073833;28;20229;-59
2024/01/26 08:35:17;;;;;;;3.80;1.95;;;9.30;99.90;;;;;;5074525;28;20524;-59
2024/01/26 08:37:43;;;;;;;4.00;3.30;;;9.30;99.90;;;;;;5074386;28;20211;-59
2024/01/26 08:40:09;;;;;;;2.40;2.30;;;9.20;99.90;;;;;;5074204;28;20446;-59
2024/01/26 08:42:35;;;;;;;2.80;2.60;;;9.20;99.90;;;;;;5073884;28;20502;-60
2024/01/26 08:45:02;;;;;;;2.33;2.13;;;9.10;99.90;;;;;;5073947;28;20451;-59
2024/01/26 08:47:27;;;;;;;2.13;1.92;;;9.10;99.90;;;;;;5074191;28;20165;-59
2024/01/26 08:49:53;;;;;;;2.50;1.97;;;9.20;99.90;;;;;;5074041;28;20235;-59
2024/01/26 08:52:19;;;;;;;2.40;2.20;;;9.30;99.90;;;;;;5073757;28;20193;-59
2024/01/26 08:54:45;;;;;;;4.63;2.25;;;9.30;99.90;;;;;;5073984;28;20193;-59
2024/01/26 08:57:11;;;;;;;1.67;1.57;;;9.40;99.90;;;;;;5073922;28;20224;-59
2024/01/26 08:59:38;;;;;;;3.13;2.30;;;9.40;99.90;;;;;;5073785;28;20188;-59
2024/01/26 09:02:04;;;;;;;1.90;1.75;;;9.40;99.90;;;;;;5073551;28;20428;-60
2024/01/26 09:04:30;;;;;;;2.50;2.30;;;9.50;99.90;;;;;;5073722;28;20286;-61
2024/01/26 09:06:55;;;;;;;2.43;2.23;;;9.50;99.90;;;;;;5073888;28;20230;-60
2024/01/26 09:09:22;;;;;;;2.27;2.07;;;9.50;99.90;;;;;;5073432;28;20656;-59
2024/01/26 09:11:48;;;;;;;2.00;1.90;;;9.70;99.90;;;;;;5073430;28;20562;-60
2024/01/26 09:14:14;;;;;;;1.80;1.70;;;9.80;99.90;;;;;;5073599;28;20178;-59
2024/01/26 09:16:40;;;;;;;2.85;1.90;;;9.80;99.90;;;;;;5073877;28;20185;-59
2024/01/26 09:19:08;;;;;;;3.90;2.20;;;9.90;99.90;;;;;;5073721;28;20673;-59
2024/01/26 09:21:33;;;;;;;2.60;2.40;;;9.90;99.90;;;;;;5073289;28;20213;-60
2024/01/26 09:23:59;;;;;;;3.93;3.07;;;9.90;99.90;;;;;;5073018;28;20229;-59
2024/01/26 09:26:25;;;;;;;4.60;4.20;;;9.90;99.90;;;;;;5073384;28;20556;-59
2024/01/26 09:28:50;;;;;;;4.27;2.93;;;9.90;99.90;;;;;;5072987;28;20231;-60
2024/01/26 09:31:17;;;;;;;3.47;2.77;;;10.00;99.90;;;;;;5073205;28;20169;-59
2024/01/26 09:33:43;;;;;;;3.03;2.83;;;9.90;99.90;;;;;;5072714;28;20251;-59
2024/01/26 09:36:10;;;;;;;3.03;2.70;;;9.90;99.90;;;;;;5073173;28;20508;-59
2024/01/26 09:38:35;;;;;;;2.95;2.25;;;9.90;99.90;;;;;;5072486;28;20197;-59
2024/01/26 09:41:01;;;;;;;2.87;2.00;;;10.00;99.90;;;;;;5072636;28;20603;-60
2024/01/26 09:43:27;;;;;;;2.67;2.47;;;10.00;99.90;;;;;;5072706;28;20192;-60
2024/01/26 09:45:52;;;;;;;3.43;3.13;;;10.00;99.90;;;;;;5073166;28;20207;-60
2024/01/26 09:48:19;;;;;;;3.73;3.43;;;10.00;99.90;;;;;;5073030;28;20199;-59
2024/01/26 09:50:50;;;;;;;2.85;2.65;;;10.10;99.90;;;;;;5072349;28;20650;-60
2024/01/26 09:53:17;;;;;;;6.20;2.20;;;10.10;99.90;;;;;;5072628;28;20204;-59
2024/01/26 09:55:47;;;;;;;3.60;3.40;;;10.10;99.90;;;;;;5072902;28;20440;-60
2024/01/26 09:58:14;;;;;;;2.57;2.40;;;10.30;99.90;;;;;;5072929;28;20212;-60
2024/01/26 10:00:45;;;;;;;4.60;4.20;;;10.30;99.90;;;;;;5072425;28;20441;-60
2024/01/26 10:03:11;;;;;;;2.37;2.17;;;10.30;99.90;;;;;;5072433;28;20431;-59
2024/01/26 10:05:38;;;;;;;2.90;2.70;;;10.40;99.90;;;;;;5072801;28;20429;-59
2024/01/26 10:08:10;;;;;;;3.83;3.00;;;10.40;99.90;;;;;;5072727;28;20408;-59
2024/01/26 10:10:37;;;;;;;3.63;2.40;;;10.40;99.90;;;;;;5072503;28;20485;-60
2024/01/26 10:13:08;;;;;;;2.20;2.10;;;10.50;99.90;;;;;;5071694;28;20432;-59
2024/01/26 10:15:34;;;;;;;2.70;2.00;;;10.50;99.90;;;;;;5071931;28;20438;-59
2024/01/26 10:18:00;;;;;;;2.40;2.03;;;10.50;99.90;;;;;;5072373;28;20411;-59
2024/01/26 10:20:26;;;;;;;4.23;3.87;;;10.50;99.90;;;;;;5061244;28;20437;-59
2024/01/26 10:22:52;;;;;;;3.03;2.70;;;10.50;99.90;;;;;;5051787;28;20438;-60
2024/01/26 10:25:18;;;;;;;3.43;2.07;;;10.50;99.90;;;;;;5052410;28;20649;-59
2024/01/26 10:27:44;;;;;;;2.57;2.37;;;10.40;99.90;;;;;;5052373;28;20497;-60
2024/01/26 10:30:11;;;;;;;12.67;5.30;;;10.50;99.90;;;;;;5052102;28;20257;-59
2024/01/26 10:32:37;;;;;;;2.93;2.67;;;10.50;99.90;;;;;;5051688;28;20210;-60
2024/01/26 10:35:04;;;;;;;2.53;2.33;;;10.50;99.90;;;;;;5052052;28;20405;-59
2024/01/26 10:37:32;;;;;;;3.77;2.70;;;10.50;99.90;;;;;;5051835;28;20269;-60
2024/01/26 10:40:00;;;;;;;1.97;1.77;;;10.60;99.90;;;;;;5052100;28;20401;-60
2024/01/26 10:42:29;;;;;;;3.33;2.47;;;10.50;99.90;;;;;;5051715;28;20429;-61
2024/01/26 10:44:56;;;;;;;4.67;4.27;;;10.60;99.90;;;;;;5051893;28;20513;-60
2024/01/26 10:47:22;;;;;;;6.63;4.40;;;10.70;99.90;;;;;;5052051;28;20405;-61
2024/01/26 10:49:49;;;;;;;2.53;2.33;;;10.60;99.90;;;;;;5051448;28;20483;-61
2024/01/26 10:52:22;;;;;;;4.07;2.53;;;10.70;99.90;;;;;;5051440;28;20431;-61
2024/01/26 10:54:49;;;;;;;2.27;2.03;;;10.70;99.90;;;;;;5051396;28;20847;-60
2024/01/26 10:57:15;;;;;;;1.70;1.60;;;10.80;99.90;;;;;;5051494;28;20431;-60
2024/01/26 10:59:44;;;;;;;1.90;1.80;;;10.80;99.90;;;;;;5051609;28;20405;-60
2024/01/26 11:02:31;;;;;;;4.10;3.10;;;10.70;99.90;;;;;;5051365;28;20428;-60
2024/01/26 11:05:07;;;;;;;2.80;2.60;;;10.50;99.90;;;;;;5031746;28;20456;-60
2024/01/26 11:07:37;;;;;;;4.30;3.90;;;10.50;99.90;;;;;;5051396;28;20507;-60
2024/01/26 11:10:05;;;;;;;4.30;3.30;;;10.60;99.90;;;;;;5051521;28;20409;-60
2024/01/26 11:12:34;;;;;;;8.00;5.93;;;10.50;99.90;;;;;;5050345;28;20433;-61
2024/01/26 11:15:08;;;;;;;3.90;3.30;;;10.50;99.90;;;;;;5047829;28;20444;-60
2024/01/26 11:17:54;;;;;;;3.40;3.10;;;10.40;99.90;;;;;;5050585;28;20424;-61
2024/01/26 11:20:32;;;;;;;6.33;4.30;;;10.30;99.90;;;;;;5051018;28;20489;-60
2024/01/26 11:22:59;;;;;;;11.57;4.13;;;10.30;99.90;;;;;;5050973;28;20456;-60
2024/01/26 11:25:25;;;;;;;16.27;9.48;;;10.30;99.90;;;;;;5051032;28;20462;-60
2024/01/26 11:27:59;;;;;;;5.20;4.70;;;10.20;99.90;;;;;;5051351;28;20177;-61
2024/01/26 11:30:26;;;;;;;4.17;3.87;;;10.20;99.90;;;;;;5051136;28;20201;-60
2024/01/26 11:32:52;;;;;;;2.77;2.30;;;10.30;99.90;;;;;;5050644;28;20995;-60
2024/01/26 11:35:20;;;;;;;2.63;2.42;;;10.30;99.90;;;;;;5050755;28;20451;-61
2024/01/26 11:37:47;;;;;;;2.07;1.97;;;10.20;99.90;;;;;;5051058;28;20181;-60
2024/01/26 11:40:13;;;;;;;3.53;3.10;;;10.20;99.90;;;;;;5050311;28;20416;-61
2024/01/26 11:42:40;;;;;;;5.30;4.80;;;10.10;99.90;;;;;;5051106;28;20281;-61
2024/01/26 11:45:12;;;;;;;5.10;3.92;;;10.10;99.90;;;;;;5051250;28;20202;-61
2024/01/26 11:47:39;;;;;;;5.55;2.90;;;10.10;99.90;;;;;;5038981;28;20201;-59
2024/01/26 11:50:12;;;;;;;3.97;2.67;;;10.10;99.90;;;;;;5050542;28;20276;-61
2024/01/26 11:52:38;;;;;;;6.72;5.47;;;10.10;99.90;;;;;;5050334;28;20939;-61
2024/01/26 11:55:06;;;;;;;1.95;1.70;;;10.00;99.90;;;;;;5051317;28;20216;-60
2024/01/26 11:57:32;;;;;;;1.83;1.73;;;10.00;99.90;;;;;;5048482;28;20185;-60
2024/01/26 12:00:04;;;;;;;2.33;2.17;;;10.00;99.90;;;;;;5050389;28;20285;-63
2024/01/26 12:02:30;;;;;;;2.80;2.60;;;10.00;99.90;;;;;;5033910;28;20198;-61
2024/01/26 12:04:56;;;;;;;4.37;2.60;;;10.00;99.90;;;;;;5054699;28;20585;-60
2024/01/26 12:07:22;;;;;;;1.73;1.63;;;9.80;99.90;;;;;;5055336;28;20170;-60
2024/01/26 12:09:48;;;;;;;1.67;1.52;;;9.60;99.90;;;;;;5054874;28;20535;-60
2024/01/26 12:12:14;;;;;;;2.43;1.77;;;9.60;99.90;;;;;;5054665;28;20244;-61
2024/01/26 12:14:40;;;;;;;6.90;2.67;;;9.60;99.90;;;;;;5054322;28;20178;-61
2024/01/26 12:17:06;;;;;;;2.53;2.33;;;9.60;99.90;;;;;;5051693;28;20232;-61
2024/01/26 12:19:32;;;;;;;2.13;1.92;;;9.80;99.90;;;;;;5036970;28;20182;-61
2024/01/26 12:21:58;;;;;;;2.30;2.05;;;9.70;99.90;;;;;;5053514;28;20542;-60
2024/01/26 12:24:24;;;;;;;1.70;1.60;;;9.70;99.90;;;;;;5054104;28;20198;-60
2024/01/26 12:26:50;;;;;;;1.95;1.83;;;9.60;99.90;;;;;;5054525;28;20416;-61
2024/01/26 12:29:16;;;;;;;2.60;2.40;;;9.60;99.90;;;;;;5054576;28;20178;-60
2024/01/26 12:31:42;;;;;;;3.93;3.47;;;9.70;99.90;;;;;;5054131;28;20162;-61
2024/01/26 12:34:16;;;;;;;3.00;2.40;;;9.80;99.90;;;;;;5054157;28;20174;-60
2024/01/26 12:36:42;;;;;;;2.05;1.83;;;9.60;99.90;;;;;;5054276;28;20719;-61
2024/01/26 12:39:08;;;;;;;2.10;1.90;;;9.60;99.90;;;;;;5054358;28;20207;-60
2024/01/26 12:41:34;;;;;;;2.20;1.90;;;9.70;99.90;;;;;;5054245;28;20264;-60
2024/01/26 12:44:00;;;;;;;3.07;2.27;;;9.60;99.90;;;;;;5054103;28;20311;-60
2024/01/26 12:46:26;;;;;;;2.80;2.60;;;9.50;99.90;;;;;;5054326;28;20405;-61
2024/01/26 12:48:52;;;;;;;6.90;5.00;;;9.50;99.90;;;;;;5054111;28;20320;-62
2024/01/26 12:51:19;;;;;;;5.00;3.72;;;9.40;99.90;;;;;;5054073;28;20170;-60